Husein Sastranegara International Airport


Codes: WICC/BDO
Name: Husein Sastranegara International Airport
City: Bandung-Java Island
Country: Indonesia
Elevation: 2436 ft.
Wikipedia:

Photos at Husein Sastranegara International Airport


   Photos courtesy of SpottingLog. You can add your own sightings and photos by signing up for a free trial today.



No photos found.

Weather at Husein Sastranegara International Airport


Time (UTC)DescriptionTempratureWindCloud coverageVisibilityPressureHumidity
13-Jun-2024 03:00Broken Clouds23°C2 mph, N52%10000m1014hPa81%
13-Jun-2024 06:00Light Rain24°C7 mph, NW63%10000m1013hPa79%
13-Jun-2024 09:00Light Rain25°C4 mph, N89%10000m1011hPa79%
13-Jun-2024 12:00Light Rain22°C2 mph, N93%10000m1013hPa95%
13-Jun-2024 15:00Light Rain22°C0 mph, N100%10000m1014hPa96%
13-Jun-2024 18:00Light Rain21°C0 mph, SE100%10000m1013hPa97%
13-Jun-2024 21:00Overcast Clouds21°C0 mph, SW96%10000m1011hPa97%
14-Jun-2024 00:00Overcast Clouds22°C2 mph, S90%10000m1013hPa93%
14-Jun-2024 03:00Scattered Clouds27°C4 mph, NW43%10000m1012hPa68%
14-Jun-2024 06:00Light Rain27°C7 mph, NW53%10000m1010hPa72%
14-Jun-2024 09:00Moderate Rain24°C4 mph, NW81%10000m1010hPa84%
14-Jun-2024 12:00Moderate Rain22°C2 mph, NW90%10000m1012hPa93%
14-Jun-2024 15:00Moderate Rain22°C0 mph, NW100%10000m1013hPa95%
14-Jun-2024 18:00Light Rain22°C0 mph, E100%10000m1012hPa95%
14-Jun-2024 21:00Light Rain21°C2 mph, SE99%10000m1011hPa93%
15-Jun-2024 00:00Overcast Clouds22°C2 mph, SE99%10000m1013hPa89%
15-Jun-2024 03:00Light Rain26°C2 mph, NW76%10000m1012hPa71%
15-Jun-2024 06:00Light Rain26°C4 mph, NW74%8106m1010hPa74%
15-Jun-2024 09:00Moderate Rain25°C2 mph, NW94%10000m1009hPa83%
15-Jun-2024 12:00Light Rain22°C2 mph, S96%10000m1011hPa89%
15-Jun-2024 15:00Light Rain22°C2 mph, S100%10000m1013hPa89%
15-Jun-2024 18:00Light Rain21°C2 mph, SE100%10000m1012hPa89%
15-Jun-2024 21:00Light Rain21°C4 mph, SE99%10000m1012hPa88%
16-Jun-2024 00:00Overcast Clouds22°C2 mph, SE97%10000m1012hPa85%
16-Jun-2024 03:00Overcast Clouds26°C2 mph, N100%10000m1013hPa67%
16-Jun-2024 06:00Light Rain28°C4 mph, NW87%10000m1010hPa57%
16-Jun-2024 09:00Light Rain26°C2 mph, NW78%10000m1010hPa76%
16-Jun-2024 12:00Light Rain22°C2 mph, NE66%10000m1012hPa91%
16-Jun-2024 15:00Light Rain21°C0 mph, SE49%10000m1014hPa94%
16-Jun-2024 18:00Scattered Clouds21°C2 mph, SE49%10000m1013hPa94%
16-Jun-2024 21:00Scattered Clouds19°C4 mph, SE26%10000m1012hPa91%
17-Jun-2024 00:00Few Clouds20°C4 mph, SE23%10000m1014hPa84%
17-Jun-2024 03:00Clear Sky26°C2 mph, NE5%10000m1013hPa54%
17-Jun-2024 06:00Clear Sky29°C4 mph, NE5%10000m1010hPa41%
17-Jun-2024 09:00Few Clouds27°C7 mph, NE14%10000m1010hPa57%
17-Jun-2024 12:00Clear Sky21°C0 mph, NE10%10000m1013hPa86%
17-Jun-2024 15:00Broken Clouds20°C2 mph, S54%10000m1014hPa89%
17-Jun-2024 18:00Scattered Clouds20°C2 mph, SE29%10000m1013hPa90%
17-Jun-2024 21:00Broken Clouds19°C4 mph, SE67%10000m1012hPa88%
18-Jun-2024 00:00Broken Clouds21°C4 mph, SE73%10000m1013hPa76%